Earlton, Canada
Current Conditions -  °F | °C
As of 7:08 PM on Saturday 25 Oct 2014 (Local Time) from CYXR Reporting Station
Light Rain Light Rain  
Wind Chill: 39°   Ceiling: 3000
Heat Index: 45°   Visibility: 5mi
Dew Point: 41°   Wind: 12mph
Humidity: 87%   Direction: 290°WNW
Pressure: 29.46"   Gusts: 23mph
Location:  47.71°N, 79.82°W
Report Text: CYXR 252308Z AUTO 29010G20KT 5SM -RA FEW019 SCT023 BKN030 OVC037 07/05 A2946 RMK SLP982
Loading
Personal Weather Stations






























Interactive Weather Map
Tropical Storm Tracking
New forecast layout! Learn more

10-Day Weather Forecast

Advertisements
Track Severe Weather on mobile